Time;durP1;ratioP1;P1;durP2;ratioP2;P2;SDS_P1;SDS_P2;PMS_P1;PMS_P2;Temp;Humidity;BMP_temperature;BMP_pressure;BME280_temperature;BME280_humidity;BME280_pressure;Samples;Min_cycle;Max_cycle;Signal;HPM_P1;HPM_P2
2022/05/25 00:00:37;;;;;;;4.38;3.33;;;;;;;;;;5031177;28;20029;-69
2022/05/25 00:03:05;;;;;;;4.65;3.45;;;;;;;;;;5031104;28;20032;-69
2022/05/25 00:05:30;;;;;;;5.38;3.42;;;;;;;;;;5030919;28;20028;-68
2022/05/25 00:07:57;;;;;;;5.95;3.72;;;;;;;;;;5031516;28;20544;-68
2022/05/25 00:10:23;;;;;;;3.35;2.75;;;;;;;;;;5032463;28;20052;-68
2022/05/25 00:12:49;;;;;;;3.63;3.08;;;;;;;;;;5030386;28;20025;-69
2022/05/25 00:15:15;;;;;;;5.65;3.30;;;;;;;;;;5030647;28;20525;-69
2022/05/25 00:17:41;;;;;;;8.57;3.33;;;;;;;;;;5030794;28;20501;-69
2022/05/25 00:20:09;;;;;;;6.40;3.50;;;;;;;;;;5030422;28;20325;-68
2022/05/25 00:22:40;;;;;;;4.03;2.88;;;;;;;;;;5030958;28;20029;-68
2022/05/25 00:25:08;;;;;;;4.72;3.47;;;;;;;;;;5031440;28;20033;-67
2022/05/25 00:27:34;;;;;;;4.68;3.30;;;;;;;;;;5031112;28;20038;-70
2022/05/25 00:30:00;;;;;;;4.22;2.97;;;;;;;;;;5030855;28;20033;-70
2022/05/25 00:32:27;;;;;;;3.08;2.67;;;;;;;;;;5032331;28;20034;-69
2022/05/25 00:34:52;;;;;;;3.90;3.15;;;;;;;;;;5031851;28;20416;-69
2022/05/25 00:37:18;;;;;;;5.53;2.60;;;;;;;;;;5031929;28;20557;-68
2022/05/25 00:39:43;;;;;;;3.17;2.92;;;;;;;;;;5032050;28;20029;-69
2022/05/25 00:42:09;;;;;;;7.53;3.05;;;;;;;;;;5032108;28;20029;-69
2022/05/25 00:44:35;;;;;;;5.95;3.08;;;;;;;;;;5029661;28;20299;-69
2022/05/25 00:47:00;;;;;;;3.22;2.92;;;;;;;;;;5031422;28;20504;-70
2022/05/25 00:49:29;;;;;;;3.60;2.50;;;;;;;;;;5030776;28;20069;-69
2022/05/25 00:52:11;;;;;;;3.95;2.60;;;;;;;;;;5031032;28;20072;-70
2022/05/25 00:54:39;;;;;;;;;;;;;;;;;;5031469;28;20024;-69
2022/05/25 00:57:10;;;;;;;3.13;2.83;;;;;;;;;;5030086;28;19909;-69
2022/05/25 01:00:10;;;;;;;3.72;2.80;;;;;;;;;;5030764;28;20025;-68
2022/05/25 01:02:48;;;;;;;4.00;2.60;;;;;;;;;;5029451;28;20056;-70
2022/05/25 01:05:16;;;;;;;2.80;2.50;;;;;;;;;;5031164;28;20446;-69
2022/05/25 01:07:59;;;;;;;4.90;2.40;;;;;;;;;;5031512;28;20470;-69
2022/05/25 01:10:38;;;;;;;2.60;2.25;;;;;;;;;;5031460;28;20032;-69
2022/05/25 01:13:31;;;;;;;3.35;2.60;;;;;;;;;;5031198;28;20032;-69
2022/05/25 01:15:59;;;;;;;7.25;2.80;;;;;;;;;;5031199;28;20038;-69
2022/05/25 01:18:40;;;;;;;5.53;3.13;;;;;;;;;;5029824;28;20025;-69
2022/05/25 01:21:34;;;;;;;3.10;2.80;;;;;;;;;;5029464;28;20393;-70
2022/05/25 01:24:48;;;;;;;3.90;2.60;;;;;;;;;;5028555;28;20037;-68
2022/05/25 01:27:32;;;;;;;6.85;3.20;;;;;;;;;;5031011;28;20067;-69
2022/05/25 01:30:04;;;;;;;3.67;2.95;;;;;;;;;;5031085;28;20057;-69
2022/05/25 01:32:43;;;;;;;2.83;2.53;;;;;;;;;;5030983;28;20030;-69
2022/05/25 01:35:33;;;;;;;6.85;2.83;;;;;;;;;;5029086;28;20033;-70
2022/05/25 01:38:27;;;;;;;3.08;2.78;;;;;;;;;;5029275;28;20028;-73
2022/05/25 01:41:08;;;;;;;7.00;3.13;;;;;;;;;;5016336;28;20029;-70
2022/05/25 01:43:58;;;;;;;3.50;3.20;;;;;;;;;;5031206;28;20033;-69
2022/05/25 01:46:26;;;;;;;3.60;2.78;;;;;;;;;;5030598;28;20313;-70
2022/05/25 01:48:55;;;;;;;6.07;2.80;;;;;;;;;;5030456;28;20035;-68
2022/05/25 01:51:35;;;;;;;5.07;2.72;;;;;;;;;;5029008;28;20339;-68
2022/05/25 01:54:05;;;;;;;4.30;2.63;;;;;;;;;;5030479;28;20057;-69
2022/05/25 01:56:34;;;;;;;3.92;2.83;;;;;;;;;;5028150;28;20492;-70
2022/05/25 01:59:04;;;;;;;3.67;3.03;;;;;;;;;;5030383;28;20036;-69
2022/05/25 02:01:30;;;;;;;4.22;2.90;;;;;;;;;;5030528;28;20025;-71
2022/05/25 02:06:49;;;;;;;4.18;3.42;;;;;;;;;;5030683;28;20043;-70
2022/05/25 02:09:39;;;;;;;6.45;2.80;;;;;;;;;;5030534;28;20026;-70
2022/05/25 02:12:27;;;;;;;5.30;3.15;;;;;;;;;;5028765;28;20053;-69
2022/05/25 02:14:52;;;;;;;3.20;2.90;;;;;;;;;;5028862;28;20048;-69
2022/05/25 02:17:38;;;;;;;4.30;3.20;;;;;;;;;;5029678;28;20446;-69
2022/05/25 02:20:13;;;;;;;3.22;2.92;;;;;;;;;;5029853;28;20393;-70
2022/05/25 02:22:47;;;;;;;3.63;3.10;;;;;;;;;;5028422;28;20207;-69
2022/05/25 02:25:31;;;;;;;6.50;3.40;;;;;;;;;;5029784;28;20383;-69
2022/05/25 02:28:11;;;;;;;3.33;3.03;;;;;;;;;;5029867;28;20171;-70
2022/05/25 02:30:42;;;;;;;3.60;3.17;;;;;;;;;;5029046;28;20032;-70
2022/05/25 02:33:15;;;;;;;4.97;3.57;;;;;;;;;;5027574;28;20024;-69
2022/05/25 02:35:46;;;;;;;4.35;2.78;;;;;;;;;;5029237;28;20044;-69
2022/05/25 02:38:13;;;;;;;9.18;3.65;;;;;;;;;;5029710;28;20124;-70
2022/05/25 02:40:40;;;;;;;7.03;3.25;;;;;;;;;;5029844;28;20026;-69
2022/05/25 02:43:07;;;;;;;8.27;3.90;;;;;;;;;;5029810;28;20517;-70
2022/05/25 02:45:34;;;;;;;4.90;3.60;;;;;;;;;;5028179;28;20041;-69
2022/05/25 02:47:59;;;;;;;6.85;3.42;;;;;;;;;;5028052;28;20032;-71
2022/05/25 02:50:25;;;;;;;9.23;3.85;;;;;;;;;;5028125;28;20025;-70
2022/05/25 02:52:50;;;;;;;5.78;3.25;;;;;;;;;;5029870;28;20029;-70
2022/05/25 02:55:16;;;;;;;4.03;3.40;;;;;;;;;;5028018;28;20045;-69
2022/05/25 02:57:42;;;;;;;10.57;3.83;;;;;;;;;;5027877;28;20737;-69
2022/05/25 03:00:09;;;;;;;5.22;3.42;;;;;;;;;;5027889;28;20034;-69
2022/05/25 03:02:35;;;;;;;4.10;3.47;;;;;;;;;;5028076;28;20151;-70
2022/05/25 03:05:01;;;;;;;4.53;3.80;;;;;;;;;;5027341;28;20029;-69
2022/05/25 03:07:27;;;;;;;5.45;3.03;;;;;;;;;;5027592;28;20086;-70
2022/05/25 03:09:52;;;;;;;4.68;3.17;;;;;;;;;;5029208;28;20032;-68
2022/05/25 03:12:18;;;;;;;4.93;3.33;;;;;;;;;;5027485;28;20124;-68
2022/05/25 03:14:44;;;;;;;4.47;3.55;;;;;;;;;;5029183;28;20092;-68
2022/05/25 03:17:14;;;;;;;4.63;3.88;;;;;;;;;;5027329;28;20140;-72
2022/05/25 03:20:00;;;;;;;5.55;4.15;;;;;;;;;;5027899;28;20049;-70
2022/05/25 03:22:26;;;;;;;5.68;3.78;;;;;;;;;;5027500;28;20059;-69
2022/05/25 03:24:52;;;;;;;4.47;4.07;;;;;;;;;;5029336;28;20116;-70
2022/05/25 03:27:18;;;;;;;4.47;3.72;;;;;;;;;;5027292;28;20046;-70
2022/05/25 03:29:45;;;;;;;5.50;3.58;;;;;;;;;;5027581;28;20068;-70
2022/05/25 03:32:11;;;;;;;5.18;3.42;;;;;;;;;;5027421;28;20041;-70
2022/05/25 03:34:37;;;;;;;4.70;3.60;;;;;;;;;;5026694;28;20391;-69
2022/05/25 03:37:04;;;;;;;4.88;3.80;;;;;;;;;;5026296;28;20017;-70
2022/05/25 03:39:30;;;;;;;5.90;3.75;;;;;;;;;;5027724;28;20036;-71
2022/05/25 03:42:01;;;;;;;4.75;3.50;;;;;;;;;;5029008;28;20069;-69
2022/05/25 03:44:27;;;;;;;7.47;3.92;;;;;;;;;;5027646;28;20022;-69
2022/05/25 03:46:54;;;;;;;4.70;3.78;;;;;;;;;;5027371;28;20037;-69
2022/05/25 03:49:20;;;;;;;4.88;4.15;;;;;;;;;;5010550;28;20025;-67
2022/05/25 03:51:46;;;;;;;6.15;3.92;;;;;;;;;;5027387;28;20037;-68
2022/05/25 03:54:12;;;;;;;4.47;3.70;;;;;;;;;;5028468;28;20128;-70
2022/05/25 03:56:38;;;;;;;7.55;3.90;;;;;;;;;;5028781;28;20492;-71
2022/05/25 03:59:05;;;;;;;5.70;3.88;;;;;;;;;;5028432;28;20025;-68
2022/05/25 04:01:32;;;;;;;4.80;3.83;;;;;;;;;;5028616;28;20034;-68
2022/05/25 04:03:58;;;;;;;4.20;3.72;;;;;;;;;;5028506;28;20053;-70
2022/05/25 04:06:24;;;;;;;4.05;3.53;;;;;;;;;;5026863;28;20393;-69
2022/05/25 04:08:50;;;;;;;8.73;4.00;;;;;;;;;;5027972;28;20033;-70
2022/05/25 04:11:15;;;;;;;8.75;3.83;;;;;;;;;;5026716;28;20029;-71
2022/05/25 04:13:41;;;;;;;5.57;3.88;;;;;;;;;;5027816;28;20051;-69
2022/05/25 04:16:06;;;;;;;6.00;4.25;;;;;;;;;;5028016;28;20052;-69
2022/05/25 04:18:32;;;;;;;5.22;4.10;;;;;;;;;;5029126;28;20465;-72
2022/05/25 04:20:58;;;;;;;5.75;4.28;;;;;;;;;;5032305;28;20087;-69
2022/05/25 04:23:26;;;;;;;5.53;4.03;;;;;;;;;;5030630;28;20573;-69
2022/05/25 04:25:53;;;;;;;7.47;5.35;;;;;;;;;;5032567;28;20416;-70
2022/05/25 04:28:18;;;;;;;6.70;4.25;;;;;;;;;;5030550;28;20548;-70
2022/05/25 04:30:44;;;;;;;6.15;4.80;;;;;;;;;;5031966;28;20104;-70
2022/05/25 04:33:11;;;;;;;11.30;4.97;;;;;;;;;;5030452;28;20033;-70
2022/05/25 04:35:38;;;;;;;6.78;5.10;;;;;;;;;;5030142;28;20500;-69
2022/05/25 04:38:06;;;;;;;8.02;5.40;;;;;;;;;;5031512;28;20026;-69
2022/05/25 04:40:37;;;;;;;15.43;6.10;;;;;;;;;;5031014;28;20095;-71
2022/05/25 04:43:06;;;;;;;9.52;5.28;;;;;;;;;;5031481;28;20033;-69
2022/05/25 04:45:32;;;;;;;7.70;5.00;;;;;;;;;;5014295;28;20045;-70
2022/05/25 04:47:59;;;;;;;6.90;5.50;;;;;;;;;;5031706;28;20405;-70
2022/05/25 04:50:27;;;;;;;8.25;6.22;;;;;;;;;;5030349;28;20029;-70
2022/05/25 04:52:56;;;;;;;6.38;5.00;;;;;;;;;;5029294;28;20029;-70
2022/05/25 04:58:29;;;;;;;7.65;5.03;;;;;;;;;;5029792;28;20041;-69
2022/05/25 05:00:55;;;;;;;14.55;7.10;;;;;;;;;;5031492;28;20036;-70
2022/05/25 05:03:23;;;;;;;10.90;4.97;;;;;;;;;;5029600;28;20033;-69
2022/05/25 05:05:50;;;;;;;9.57;5.28;;;;;;;;;;5031055;28;20022;-70
2022/05/25 05:08:17;;;;;;;10.35;5.53;;;;;;;;;;5029732;28;20025;-71
2022/05/25 05:10:43;;;;;;;9.95;6.30;;;;;;;;;;5030079;28;20037;-70
2022/05/25 05:13:11;;;;;;;13.60;8.43;;;;;;;;;;5030823;28;20033;-69
2022/05/25 05:15:43;;;;;;;8.52;7.70;;;;;;;;;;5029411;28;20060;-69
2022/05/25 05:18:09;;;;;;;11.95;8.13;;;;;;;;;;5029243;28;20045;-69
2022/05/25 05:20:35;;;;;;;50.75;12.27;;;;;;;;;;5029120;28;20128;-69
2022/05/25 05:23:01;;;;;;;13.07;8.77;;;;;;;;;;5030892;28;20025;-69
2022/05/25 05:25:27;;;;;;;50.03;12.05;;;;;;;;;;5030760;28;20034;-70
2022/05/25 05:27:53;;;;;;;14.75;9.88;;;;;;;;;;5030846;28;20079;-68
2022/05/25 05:30:22;;;;;;;13.70;9.93;;;;;;;;;;5030675;28;20041;-69
2022/05/25 05:32:48;;;;;;;16.40;10.40;;;;;;;;;;5030846;28;20033;-70
2022/05/25 05:35:13;;;;;;;12.50;10.45;;;;;;;;;;5024824;28;20491;-72
2022/05/25 05:37:45;;;;;;;14.48;10.88;;;;;;;;;;5012881;28;20035;-71
2022/05/25 05:40:14;;;;;;;13.43;11.00;;;;;;;;;;5037911;28;20099;-70
2022/05/25 05:42:43;;;;;;;23.40;11.70;;;;;;;;;;5046634;28;20024;-70
2022/05/25 05:45:15;;;;;;;20.85;13.25;;;;;;;;;;5034942;28;20714;-69
2022/05/25 05:47:49;;;;;;;16.05;11.20;;;;;;;;;;5036987;28;20226;-69
2022/05/25 05:50:17;;;;;;;18.40;12.30;;;;;;;;;;5032140;28;20450;-71
2022/05/25 05:52:42;;;;;;;17.80;12.35;;;;;;;;;;5047635;28;20392;-70
2022/05/25 05:55:09;;;;;;;16.70;12.70;;;;;;;;;;5040634;28;20024;-69
2022/05/25 05:57:36;;;;;;;21.13;14.40;;;;;;;;;;5039857;28;20112;-70
2022/05/25 06:00:05;;;;;;;21.10;14.90;;;;;;;;;;5033990;28;20524;-71
2022/05/25 06:02:30;;;;;;;19.23;14.98;;;;;;;;;;5044826;28;20025;-69
2022/05/25 06:04:56;;;;;;;20.50;14.57;;;;;;;;;;5034079;28;20082;-69
2022/05/25 06:07:21;;;;;;;20.50;15.10;;;;;;;;;;5039548;28;20026;-69
2022/05/25 06:09:47;;;;;;;21.55;14.45;;;;;;;;;;5024233;28;20029;-69
2022/05/25 06:12:14;;;;;;;19.58;15.05;;;;;;;;;;5028082;28;20061;-71
2022/05/25 06:14:40;;;;;;;21.20;14.77;;;;;;;;;;5016481;28;20029;-69
2022/05/25 06:19:50;;;;;;;21.67;16.00;;;;;;;;;;5022103;28;20028;-69
2022/05/25 06:22:18;;;;;;;22.55;14.68;;;;;;;;;;5027736;28;20021;-71
2022/05/25 06:24:53;;;;;;;23.70;17.00;;;;;;;;;;5032278;28;20020;-70
2022/05/25 06:27:20;;;;;;;26.50;16.33;;;;;;;;;;5028559;28;20028;-71
2022/05/25 06:29:48;;;;;;;25.48;15.93;;;;;;;;;;5032442;28;20393;-71
2022/05/25 06:32:18;;;;;;;22.35;16.38;;;;;;;;;;5038384;28;20024;-70
2022/05/25 06:34:50;;;;;;;29.85;17.23;;;;;;;;;;5023811;28;20500;-70
2022/05/25 06:37:20;;;;;;;55.60;18.88;;;;;;;;;;5024325;28;20029;-70
2022/05/25 06:39:46;;;;;;;37.90;18.30;;;;;;;;;;5025924;28;20059;-71
2022/05/25 06:42:12;;;;;;;27.08;16.63;;;;;;;;;;5022079;28;20087;-69
2022/05/25 06:44:39;;;;;;;29.50;17.75;;;;;;;;;;5058191;28;20033;-71
2022/05/25 06:47:05;;;;;;;44.78;21.08;;;;;;;;;;5031691;28;20030;-70
2022/05/25 06:49:31;;;;;;;35.83;18.70;;;;;;;;;;5025265;28;20140;-72
2022/05/25 06:51:57;;;;;;;30.00;19.05;;;;;;;;;;5046557;28;20068;-73
2022/05/25 06:54:22;;;;;;;32.63;20.15;;;;;;;;;;5023816;28;20674;-72
2022/05/25 06:56:48;;;;;;;35.42;21.35;;;;;;;;;;5034592;28;20025;-73
2022/05/25 06:59:13;;;;;;;45.95;21.48;;;;;;;;;;5024570;28;20032;-74
2022/05/25 07:01:40;;;;;;;46.42;23.30;;;;;;;;;;5024046;28;20029;-73
2022/05/25 07:04:07;;;;;;;42.17;19.15;;;;;;;;;;5016478;28;21317;-75
2022/05/25 07:06:36;;;;;;;44.63;22.75;;;;;;;;;;5016841;28;20117;-73
2022/05/25 07:09:02;;;;;;;34.95;20.33;;;;;;;;;;5022921;28;20300;-74
2022/05/25 07:11:28;;;;;;;34.03;19.25;;;;;;;;;;5024255;28;20029;-75
2022/05/25 07:13:54;;;;;;;35.85;19.90;;;;;;;;;;5028111;28;20029;-75
2022/05/25 07:16:21;;;;;;;37.35;20.98;;;;;;;;;;5031972;28;20599;-74
2022/05/25 07:18:47;;;;;;;35.90;21.38;;;;;;;;;;5023885;28;20490;-73
2022/05/25 07:21:15;;;;;;;39.60;23.25;;;;;;;;;;5018302;28;20057;-73
2022/05/25 07:23:42;;;;;;;51.85;25.55;;;;;;;;;;5028275;28;20163;-75
2022/05/25 07:26:09;;;;;;;45.92;25.42;;;;;;;;;;5024421;28;20029;-74
2022/05/25 07:28:35;;;;;;;45.65;26.20;;;;;;;;;;5059541;28;20523;-74
2022/05/25 07:31:16;;;;;;;46.60;26.70;;;;;;;;;;5027918;28;20033;-73
2022/05/25 07:33:44;;;;;;;53.50;27.02;;;;;;;;;;5045175;28;20393;-75
2022/05/25 07:36:10;;;;;;;54.78;27.02;;;;;;;;;;5025327;28;20091;-75
2022/05/25 07:38:41;;;;;;;56.78;28.05;;;;;;;;;;5031651;28;20381;-75
2022/05/25 07:41:08;;;;;;;53.60;27.02;;;;;;;;;;5025805;28;20030;-73
2022/05/25 07:43:34;;;;;;;54.97;28.63;;;;;;;;;;5014140;28;20052;-75
2022/05/25 07:46:00;;;;;;;56.60;28.25;;;;;;;;;;5028332;28;20029;-74
2022/05/25 07:48:26;;;;;;;58.53;28.95;;;;;;;;;;5025442;28;20429;-75
2022/05/25 07:50:52;;;;;;;54.33;29.20;;;;;;;;;;5026458;28;20088;-74
2022/05/25 07:56:03;;;;;;;50.97;26.58;;;;;;;;;;5018151;28;20045;-74
2022/05/25 07:58:31;;;;;;;45.75;28.20;;;;;;;;;;5020211;28;20025;-75
2022/05/25 08:01:02;;;;;;;48.30;26.30;;;;;;;;;;5019006;28;20104;-73
2022/05/25 08:06:12;;;;;;;47.00;27.85;;;;;;;;;;5023178;28;20040;-74
2022/05/25 08:08:38;;;;;;;46.78;25.90;;;;;;;;;;5016746;28;20062;-74
2022/05/25 08:11:07;;;;;;;44.65;26.67;;;;;;;;;;5024377;28;20180;-70
2022/05/25 08:13:35;;;;;;;39.42;25.13;;;;;;;;;;5017975;28;20099;-71
2022/05/25 08:16:02;;;;;;;33.30;22.90;;;;;;;;;;5020518;28;20050;-75
2022/05/25 08:18:27;;;;;;;39.05;22.63;;;;;;;;;;5022042;28;20314;-74
2022/05/25 08:20:54;;;;;;;30.45;20.65;;;;;;;;;;5019969;28;20367;-75
2022/05/25 08:23:20;;;;;;;34.63;21.35;;;;;;;;;;5018240;28;20045;-74
2022/05/25 08:25:45;;;;;;;27.15;18.13;;;;;;;;;;5021037;28;20025;-73
2022/05/25 08:28:11;;;;;;;25.55;17.45;;;;;;;;;;5022695;28;20129;-74
2022/05/25 08:30:40;;;;;;;20.50;13.90;;;;;;;;;;5023463;28;20650;-72
2022/05/25 08:33:05;;;;;;;16.63;11.90;;;;;;;;;;5016853;28;20691;-74
2022/05/25 08:35:31;;;;;;;14.40;11.02;;;;;;;;;;5014810;28;20033;-72
2022/05/25 08:37:58;;;;;;;15.25;11.57;;;;;;;;;;5018765;28;20539;-76
2022/05/25 08:40:25;;;;;;;20.67;11.02;;;;;;;;;;5021291;28;20454;-74
2022/05/25 08:42:58;;;;;;;14.52;11.02;;;;;;;;;;5020368;28;20041;-73
2022/05/25 08:45:33;;;;;;;11.68;8.02;;;;;;;;;;5016641;28;20489;-72
2022/05/25 08:48:01;;;;;;;9.88;6.97;;;;;;;;;;5021169;28;20021;-74
2022/05/25 08:50:28;;;;;;;8.45;7.00;;;;;;;;;;5019249;28;20052;-74
2022/05/25 08:52:59;;;;;;;7.57;6.75;;;;;;;;;;5021094;28;20078;-73
2022/05/25 08:55:38;;;;;;;14.40;6.65;;;;;;;;;;5015406;28;20388;-77
2022/05/25 08:58:06;;;;;;;10.38;5.93;;;;;;;;;;5022613;28;20110;-73
2022/05/25 09:00:32;;;;;;;7.57;5.40;;;;;;;;;;5020185;28;20029;-77
2022/05/25 09:03:07;;;;;;;8.35;5.43;;;;;;;;;;5024258;28;20477;-75
2022/05/25 09:05:44;;;;;;;6.47;4.53;;;;;;;;;;5021286;28;20036;-74
2022/05/25 09:08:43;;;;;;;6.03;4.03;;;;;;;;;;5023497;28;20517;-77
2022/05/25 09:11:21;;;;;;;5.15;4.10;;;;;;;;;;5035609;28;20077;-80
2022/05/25 09:13:46;;;;;;;6.00;4.00;;;;;;;;;;5016016;28;20048;-73
2022/05/25 09:16:17;;;;;;;4.65;4.15;;;;;;;;;;5030882;28;20041;-75
2022/05/25 09:19:08;;;;;;;7.57;4.88;;;;;;;;;;5026772;28;20037;-76
2022/05/25 09:21:43;;;;;;;4.27;3.10;;;;;;;;;;5041933;28;20044;-76
2022/05/25 09:24:13;;;;;;;4.65;3.85;;;;;;;;;;5025176;28;20266;-74
2022/05/25 09:26:40;;;;;;;4.53;3.33;;;;;;;;;;5021038;28;20041;-77
2022/05/25 09:29:08;;;;;;;3.08;2.55;;;;;;;;;;5025459;28;20044;-76
2022/05/25 09:31:59;;;;;;;5.57;3.05;;;;;;;;;;5024103;28;20080;-76
2022/05/25 09:34:37;;;;;;;6.97;2.50;;;;;;;;;;5017186;28;20565;-79
2022/05/25 09:37:36;;;;;;;4.55;2.65;;;;;;;;;;5004894;28;20039;-76
2022/05/25 09:40:05;;;;;;;5.82;3.00;;;;;;;;;;5003943;28;20128;-74
2022/05/25 09:42:35;;;;;;;4.95;3.08;;;;;;;;;;5018336;28;20120;-73
2022/05/25 09:45:09;;;;;;;4.05;2.60;;;;;;;;;;5018963;28;20037;-75
2022/05/25 09:47:46;;;;;;;4.15;2.83;;;;;;;;;;5021743;28;20066;-74
2022/05/25 09:50:31;;;;;;;5.93;2.88;;;;;;;;;;5023245;28;20029;-75
2022/05/25 09:53:03;;;;;;;4.38;2.63;;;;;;;;;;5019784;28;20029;-74
2022/05/25 09:55:34;;;;;;;5.32;2.70;;;;;;;;;;5017870;28;20314;-75
2022/05/25 09:58:04;;;;;;;5.28;3.22;;;;;;;;;;5017375;28;20064;-71
2022/05/25 10:00:34;;;;;;;3.90;3.08;;;;;;;;;;5020067;28;20465;-80
2022/05/25 10:03:21;;;;;;;5.13;2.95;;;;;;;;;;5021247;28;20483;-76
2022/05/25 10:05:50;;;;;;;8.95;3.83;;;;;;;;;;5018062;28;20057;-74
2022/05/25 10:08:44;;;;;;;6.30;2.47;;;;;;;;;;5035482;28;20037;-78
2022/05/25 10:11:27;;;;;;;5.72;2.38;;;;;;;;;;5024034;28;20055;-75
2022/05/25 10:13:56;;;;;;;2.22;1.77;;;;;;;;;;5022161;28;20731;-76
2022/05/25 10:16:26;;;;;;;2.95;2.30;;;;;;;;;;5021102;28;20508;-77
2022/05/25 10:18:52;;;;;;;4.78;2.65;;;;;;;;;;5023873;28;20440;-78
2022/05/25 10:21:38;;;;;;;3.65;1.85;;;;;;;;;;5019151;28;20132;-74
2022/05/25 10:24:15;;;;;;;4.65;1.58;;;;;;;;;;5022325;28;20358;-73
2022/05/25 10:26:48;;;;;;;3.47;2.35;;;;;;;;;;5007891;28;20040;-79
2022/05/25 10:38:37;;;;;;;4.43;1.93;;;;;;;;;;5032560;28;20373;-76
2022/05/25 10:41:37;;;;;;;3.08;2.05;;;;;;;;;;5036903;28;20269;-78
2022/05/25 10:44:02;;;;;;;4.65;2.40;;;;;;;;;;5039804;28;20116;-80
2022/05/25 10:46:30;;;;;;;4.28;2.20;;;;;;;;;;5041868;28;20474;-79
2022/05/25 10:49:22;;;;;;;3.22;2.63;;;;;;;;;;5038765;28;20493;-75
2022/05/25 10:51:52;;;;;;;2.53;1.92;;;;;;;;;;5037677;28;20033;-79
2022/05/25 10:57:26;;;;;;;2.65;1.63;;;;;;;;;;5033476;28;20039;-77
2022/05/25 11:00:06;;;;;;;3.95;1.92;;;;;;;;;;5035251;28;20028;-79
2022/05/25 11:02:53;;;;;;;2.63;2.13;;;;;;;;;;5035112;28;20067;-76
2022/05/25 11:05:23;;;;;;;3.80;1.92;;;;;;;;;;5036908;28;20029;-73
2022/05/25 11:07:53;;;;;;;2.97;2.13;;;;;;;;;;5026721;28;20021;-75
2022/05/25 11:10:37;;;;;;;5.30;2.78;;;;;;;;;;5001835;28;20084;-77
2022/05/25 11:13:27;;;;;;;8.30;3.63;;;;;;;;;;5023406;28;20028;-76
2022/05/25 11:16:17;;;;;;;4.32;2.50;;;;;;;;;;5029695;28;20080;-79
2022/05/25 11:19:01;;;;;;;3.33;2.35;;;;;;;;;;5032934;28;20212;-76
2022/05/25 11:21:54;;;;;;;4.40;2.58;;;;;;;;;;5031321;28;20489;-77
2022/05/25 11:24:44;;;;;;;3.08;2.53;;;;;;;;;;5031951;28;20037;-76
2022/05/25 11:27:58;;;;;;;5.50;2.58;;;;;;;;;;5026431;28;20160;-75
2022/05/25 11:30:34;;;;;;;3.70;2.83;;;;;;;;;;5026016;28;20394;-76
2022/05/25 11:33:21;;;;;;;2.83;2.35;;;;;;;;;;5042003;28;20041;-77
2022/05/25 11:35:48;;;;;;;3.20;2.40;;;;;;;;;;5028694;28;20548;-79
2022/05/25 11:38:47;;;;;;;5.95;2.80;;;;;;;;;;5022928;28;20029;-77
2022/05/25 11:41:16;;;;;;;9.02;2.78;;;;;;;;;;5029682;28;20045;-78
2022/05/25 11:44:09;;;;;;;3.17;1.92;;;;;;;;;;5032459;28;20507;-76
2022/05/25 11:46:42;;;;;;;3.22;2.15;;;;;;;;;;5026802;28;20025;-74
2022/05/25 11:49:18;;;;;;;5.65;2.40;;;;;;;;;;5024734;28;20033;-79
2022/05/25 11:52:05;;;;;;;5.43;2.35;;;;;;;;;;5030620;28;20040;-74
2022/05/25 11:54:44;;;;;;;3.15;2.25;;;;;;;;;;5022629;28;20133;-80
2022/05/25 11:57:28;;;;;;;3.70;2.70;;;;;;;;;;5025105;28;20045;-78
2022/05/25 12:00:07;;;;;;;8.20;2.95;;;;;;;;;;5024298;28;20411;-76
2022/05/25 12:02:52;;;;;;;3.67;2.38;;;;;;;;;;5025328;28;20041;-78
2022/05/25 12:05:29;;;;;;;4.57;3.03;;;;;;;;;;5026833;28;20029;-78
2022/05/25 12:08:19;;;;;;;4.00;2.50;;;;;;;;;;5029360;28;20575;-82
2022/05/25 12:10:56;;;;;;;2.55;2.25;;;;;;;;;;5019129;28;20045;-76
2022/05/25 12:13:35;;;;;;;10.23;3.53;;;;;;;;;;5029140;28;20142;-75
2022/05/25 12:16:12;;;;;;;3.75;2.90;;;;;;;;;;5036516;28;20067;-78
2022/05/25 12:19:12;;;;;;;6.50;3.33;;;;;;;;;;5032107;28;20033;-75
2022/05/25 12:21:42;;;;;;;6.03;3.00;;;;;;;;;;5027002;28;20056;-78
2022/05/25 12:24:10;;;;;;;3.17;2.80;;;;;;;;;;5026581;28;20404;-79
2022/05/25 12:26:37;;;;;;;4.32;3.47;;;;;;;;;;5028648;28;20397;-77
2022/05/25 12:29:30;;;;;;;6.82;3.30;;;;;;;;;;5028264;28;20509;-73
2022/05/25 12:31:56;;;;;;;8.57;4.85;;;;;;;;;;5025758;28;21014;-76
2022/05/25 12:34:50;;;;;;;5.68;3.05;;;;;;;;;;5026809;28;20025;-78
2022/05/25 12:37:28;;;;;;;6.45;2.88;;;;;;;;;;5033810;28;20022;-77
2022/05/25 12:39:59;;;;;;;10.60;9.60;;;;;;;;;;5048147;28;20029;-75
2022/05/25 12:42:25;;;;;;;7.70;2.95;;;;;;;;;;5031898;28;20033;-74
2022/05/25 12:51:04;;;;;;;3.53;2.47;;;;;;;;;;5028996;28;20083;-77
2022/05/25 12:53:39;;;;;;;13.25;4.00;;;;;;;;;;5027623;28;20075;-73
2022/05/25 12:56:12;;;;;;;5.97;3.13;;;;;;;;;;5024535;28;20044;-77
2022/05/25 12:58:52;;;;;;;8.52;3.38;;;;;;;;;;5038906;28;20052;-74
2022/05/25 13:01:27;;;;;;;9.30;2.70;;;;;;;;;;5028147;28;20033;-76
2022/05/25 13:03:58;;;;;;;3.78;2.78;;;;;;;;;;5031345;28;21621;-74
2022/05/25 13:06:30;;;;;;;5.20;2.28;;;;;;;;;;5032693;28;20116;-77
2022/05/25 13:09:03;;;;;;;5.70;3.72;;;;;;;;;;5030174;28;20040;-79
2022/05/25 13:11:37;;;;;;;3.20;2.08;;;;;;;;;;5033017;28;20032;-80
2022/05/25 13:14:26;;;;;;;2.47;1.45;;;;;;;;;;5024724;28;20026;-76
2022/05/25 13:16:59;;;;;;;6.68;2.83;;;;;;;;;;5009199;28;20045;-78
2022/05/25 13:19:39;;;;;;;5.55;1.27;;;;;;;;;;5035854;28;20033;-76
2022/05/25 13:22:22;;;;;;;2.40;1.48;;;;;;;;;;5028705;28;20108;-76
2022/05/25 13:25:03;;;;;;;4.93;1.52;;;;;;;;;;5028041;28;20101;-80
2022/05/25 13:27:32;;;;;;;4.28;1.27;;;;;;;;;;5034690;28;20129;-73
2022/05/25 13:30:13;;;;;;;3.45;1.85;;;;;;;;;;5044102;28;20070;-75
2022/05/25 13:32:46;;;;;;;1.23;1.10;;;;;;;;;;5034212;28;20037;-76
2022/05/25 13:35:29;;;;;;;0.80;0.80;;;;;;;;;;5018573;28;20113;-73
2022/05/25 13:38:05;;;;;;;5.50;1.13;;;;;;;;;;5024418;28;20030;-76
2022/05/25 13:40:41;;;;;;;2.33;1.17;;;;;;;;;;5031874;28;20029;-77
2022/05/25 13:43:18;;;;;;;13.45;2.90;;;;;;;;;;5035220;28;20057;-76
2022/05/25 13:45:47;;;;;;;4.78;1.10;;;;;;;;;;5031777;28;20091;-78
2022/05/25 13:48:16;;;;;;;3.97;1.67;;;;;;;;;;5026340;28;20434;-76
2022/05/25 13:50:45;;;;;;;3.83;0.90;;;;;;;;;;5022534;28;20030;-77
2022/05/25 13:53:28;;;;;;;3.72;1.05;;;;;;;;;;5024540;28;20344;-78
2022/05/25 13:56:11;;;;;;;5.28;1.20;;;;;;;;;;5023380;28;20025;-73
2022/05/25 13:58:43;;;;;;;2.25;1.00;;;;;;;;;;5047134;28;20036;-78
2022/05/25 14:01:13;;;;;;;3.25;2.17;;;;;;;;;;5018502;28;20025;-77
2022/05/25 14:03:42;;;;;;;9.75;1.30;;;;;;;;;;5021019;28;20052;-75
2022/05/25 14:06:13;;;;;;;4.72;1.20;;;;;;;;;;5030362;28;20035;-80
2022/05/25 14:11:50;;;;;;;1.58;0.93;;;;;;;;;;5031551;28;20051;-76
2022/05/25 14:14:31;;;;;;;3.97;0.93;;;;;;;;;;5041269;28;20028;-77
2022/05/25 14:16:59;;;;;;;2.00;0.90;;;;;;;;;;5036114;28;20055;-76
2022/05/25 14:19:31;;;;;;;1.17;1.02;;;;;;;;;;5034572;28;20014;-77
2022/05/25 14:22:01;;;;;;;6.90;1.80;;;;;;;;;;5033881;28;20090;-80
2022/05/25 14:24:28;;;;;;;2.40;1.13;;;;;;;;;;5039232;28;20096;-78
2022/05/25 14:27:02;;;;;;;2.88;1.08;;;;;;;;;;5038581;28;20053;-76
2022/05/25 14:29:30;;;;;;;2.10;1.20;;;;;;;;;;5015986;28;20045;-80
2022/05/25 14:32:28;;;;;;;3.45;0.93;;;;;;;;;;5028818;28;20059;-75
2022/05/25 14:35:05;;;;;;;1.40;0.70;;;;;;;;;;5021720;28;20025;-79
2022/05/25 14:37:37;;;;;;;4.78;0.93;;;;;;;;;;5037777;28;20037;-79
2022/05/25 14:40:07;;;;;;;1.30;0.82;;;;;;;;;;5009207;28;20128;-79
2022/05/25 14:42:48;;;;;;;2.30;0.93;;;;;;;;;;5036215;28;20060;-80
2022/05/25 14:45:15;;;;;;;4.03;0.90;;;;;;;;;;5034095;28;20557;-81
2022/05/25 14:47:55;;;;;;;3.92;0.73;;;;;;;;;;5036506;28;20039;-80
2022/05/25 14:50:33;;;;;;;1.40;0.90;;;;;;;;;;5039756;28;20240;-81
2022/05/25 14:53:29;;;;;;;2.95;1.05;;;;;;;;;;5034579;28;20040;-81
2022/05/25 14:56:02;;;;;;;2.45;1.17;;;;;;;;;;5041055;28;20277;-80
2022/05/25 14:59:00;;;;;;;2.85;0.52;;;;;;;;;;5036157;28;20029;-82
2022/05/25 15:01:34;;;;;;;1.15;0.65;;;;;;;;;;5004434;28;20438;-83
2022/05/25 15:04:04;;;;;;;0.43;0.40;;;;;;;;;;5043062;28;20104;-82
2022/05/25 15:06:56;;;;;;;5.47;0.95;;;;;;;;;;5015265;28;20477;-77
2022/05/25 15:09:26;;;;;;;9.90;1.50;;;;;;;;;;5032054;28;20037;-78
2022/05/25 15:12:23;;;;;;;2.40;0.70;;;;;;;;;;5033220;28;20030;-82
2022/05/25 15:18:36;;;;;;;5.65;0.90;;;;;;;;;;5025907;28;20060;-78
2022/05/25 15:21:11;;;;;;;1.25;0.80;;;;;;;;;;5031889;28;20020;-78
2022/05/25 15:23:44;;;;;;;5.18;0.63;;;;;;;;;;5033664;28;20071;-78
2022/05/25 15:26:22;;;;;;;2.78;0.80;;;;;;;;;;5000967;28;20033;-77
2022/05/25 15:28:48;;;;;;;2.13;0.82;;;;;;;;;;5044095;28;20026;-78
2022/05/25 15:31:17;;;;;;;0.60;0.60;;;;;;;;;;5022449;28;20041;-77
2022/05/25 15:33:47;;;;;;;5.25;0.90;;;;;;;;;;5035358;28;20029;-80
2022/05/25 15:36:22;;;;;;;2.22;0.82;;;;;;;;;;5031383;28;20033;-76
2022/05/25 15:38:55;;;;;;;4.28;1.02;;;;;;;;;;5028916;28;20453;-75
2022/05/25 15:41:22;;;;;;;3.35;0.93;;;;;;;;;;5015117;28;20029;-81
2022/05/25 15:43:51;;;;;;;2.15;0.90;;;;;;;;;;5029840;28;20485;-78
2022/05/25 15:46:16;;;;;;;1.73;1.10;;;;;;;;;;5034813;28;20079;-78